Terminal Aerodrome Forecast
Issued by NWS

Home | Current Version | Previous Version | Text Only | Print | Product List | Glossary On
Versions: 1 2 3 4 5 6 7 8 9 10 11 12 13 14 15 16 17 18 19 20 21 22 23 24 25 26
000
FTUS41 KBUF 230213 AAA
TAFJHW
TAF AMD
KJHW 230213Z 2302/2324 19005KT 2SM BR BKN008
     FM230600 20008KT 1SM BR BKN003
     FM231300 21008KT 2SM BR VCSH BKN007
     FM231700 26010KT 3SM BR BKN007
      AMD LTD TO VIS AND WIND=

USA.gov is the U.S. government's official web portal to all federal, state and local government web resources and services.